»·PEaware :: N622SB 8W5-KYKM

N622SB :: 8W5-KYKM

FLIGHT INFORMATION

Flight Status: Arrived
Operator: Privately registered:
United States
More flights under this callsign
Pilot: Simon B. (27931)
Aircraft: BEECH AIRCRAFT BARON
(BE58)
More flights by this aircraft type
Origin: 8W5 Apex Airpark
United States
Destination: KYKM Yakima Air Term/Mcallister
United States
More flights between these airports :: More routes between these airports
Route: +SEA V2 ELN V25 YKM
File this flight plan on PilotEdge
Remarks: VFR to VAMPS then IFR
Altitude:
(Current/Filed)
9,500ft
Speed:
(Current/Filed)
170kts
Departed: 29-Oct-20 10:52 AM
Arrived: 29-Oct-20 11:41 AM
Distance/Time
Traveled:
111nm/0:49
Distance/Time
To Go:
Arrived

Flight Plot

Page will automatically refresh every two minutes.

Flight plan parsing failed; only flown route is shown


Map Options




Map Legend


Flown Route
Filed Route
Departure Airport
Arrival Airport
Navaid (VOR, NDB)
Fix

Horizontal Profiles

Position Reports

Time Latitude Longitude Heading Altitude Ground
Speed
29-Oct-20 10:35 47.661847 -122.732503 269 493ft 0kts
29-Oct-20 10:36 47.661847 -122.732452 269 493ft 0kts
29-Oct-20 10:37 47.661842 -122.732317 269 491ft 0kts
29-Oct-20 10:38 47.661841 -122.732295 269 491ft 0kts
29-Oct-20 10:39 47.661841 -122.732295 269 491ft 0kts
29-Oct-20 10:40 47.661841 -122.732295 269 491ft 0kts
29-Oct-20 10:41 47.661841 -122.732295 269 491ft 0kts
29-Oct-20 10:42 47.661841 -122.732295 269 491ft 0kts
29-Oct-20 10:43 47.661841 -122.732295 269 491ft 0kts
29-Oct-20 10:44 47.661841 -122.732295 269 491ft 0kts
29-Oct-20 10:45 47.661840 -122.732299 256 491ft 0kts
29-Oct-20 10:46 47.661616 -122.732275 172 497ft 4kts
29-Oct-20 10:47 47.660334 -122.732319 179 519ft 0kts
29-Oct-20 10:48 47.660334 -122.732319 179 519ft 0kts
29-Oct-20 10:49 47.660334 -122.732319 179 519ft 0kts
29-Oct-20 10:50 47.660068 -122.732406 224 519ft 5kts
29-Oct-20 10:51 47.641307 -122.735485 187 1151ft 129kts
29-Oct-20 10:52 47.615230 -122.768051 286 2738ft 154kts
29-Oct-20 10:53 47.655263 -122.790724 4 3016ft 173kts
29-Oct-20 10:54 47.694314 -122.770096 101 2997ft 161kts
29-Oct-20 10:55 47.655375 -122.759552 182 2680ft 149kts
29-Oct-20 10:56 47.616425 -122.759316 169 4726ft 136kts
29-Oct-20 10:57 47.589989 -122.721495 114 6824ft 146kts
29-Oct-20 10:58 47.574507 -122.663962 116 8630ft 156kts
29-Oct-20 10:59 47.551481 -122.597288 127 8895ft 209kts
29-Oct-20 11:00 47.519875 -122.528281 127 8976ft 197kts
29-Oct-20 11:01 47.492380 -122.456616 123 9025ft 202kts
29-Oct-20 11:02 47.465969 -122.381849 124 8921ft 205kts
29-Oct-20 11:03 47.440494 -122.306598 117 8959ft 206kts
29-Oct-20 11:04 47.417541 -122.229074 115 8996ft 205kts
29-Oct-20 11:05 47.399156 -122.152666 113 8990ft 207kts
29-Oct-20 11:06 47.380037 -122.072491 113 8985ft 206kts
29-Oct-20 11:07 47.361674 -121.992754 100 8981ft 206kts
29-Oct-20 11:08 47.349159 -121.910570 108 8985ft 204kts
29-Oct-20 11:09 47.334112 -121.829450 108 8954ft 202kts
29-Oct-20 11:10 47.319353 -121.750025 108 8980ft 203kts
29-Oct-20 11:11 47.304084 -121.669931 108 9007ft 204kts
29-Oct-20 11:12 47.288707 -121.590518 108 8997ft 199kts
29-Oct-20 11:13 47.272860 -121.512323 109 8983ft 198kts
29-Oct-20 11:14 47.256038 -121.434994 110 8974ft 196kts
29-Oct-20 11:15 47.238482 -121.358916 110 8985ft 196kts
29-Oct-20 11:16 47.220892 -121.283793 109 8965ft 193kts
29-Oct-20 11:17 47.202704 -121.209357 113 8978ft 194kts
29-Oct-20 11:18 47.181518 -121.136199 114 8952ft 194kts
29-Oct-20 11:19 47.160446 -121.063780 113 8957ft 192kts
29-Oct-20 11:20 47.139486 -120.991251 113 8947ft 192kts
29-Oct-20 11:21 47.118472 -120.917960 113 8928ft 194kts
29-Oct-20 11:22 47.098355 -120.847239 114 8927ft 193kts
29-Oct-20 11:23 47.083114 -120.770685 104 8940ft 197kts
29-Oct-20 11:24 47.070335 -120.692666 104 8936ft 197kts
29-Oct-20 11:25 47.057593 -120.613691 104 8933ft 199kts
29-Oct-20 11:26 47.042470 -120.535264 107 8942ft 201kts
29-Oct-20 11:27 47.022475 -120.460580 154 8945ft 193kts
29-Oct-20 11:28 46.971641 -120.456177 187 8951ft 183kts
29-Oct-20 11:29 46.920581 -120.457145 179 8949ft 185kts
29-Oct-20 11:30 46.867810 -120.446141 176 8069ft 193kts
29-Oct-20 11:31 46.814506 -120.437296 176 7128ft 189kts
29-Oct-20 11:32 46.764945 -120.428435 162 6960ft 173kts
29-Oct-20 11:33 46.720189 -120.397321 156 6089ft 174kts
29-Oct-20 11:34 46.677534 -120.374357 185 5972ft 158kts
29-Oct-20 11:35 46.631090 -120.380320 186 5006ft 167kts
29-Oct-20 11:36 46.586461 -120.387997 186 4004ft 155kts
29-Oct-20 11:37 46.558554 -120.422406 244 3096ft 138kts
29-Oct-20 11:38 46.549189 -120.468760 292 2209ft 101kts
29-Oct-20 11:39 46.559176 -120.506484 289 1482ft 98kts
29-Oct-20 11:40 46.567442 -120.539271 284 1066ft 37kts
29-Oct-20 11:41 46.569841 -120.543372 354 1072ft 10kts
29-Oct-20 11:42 46.570451 -120.543179 88 1072ft 0kts
29-Oct-20 11:43 46.570451 -120.543179 88 1072ft 0kts
29-Oct-20 11:44 46.570451 -120.543179 88 1072ft 0kts

Navigation Log

Ident Type
Flight plan parsing failed, navigation log unavailable